This is the latest recevied weather packets stored in our database for station/object KD7KCN-5. If no packets are shown the sender has not sent any weather packets the latest 10 day(s).
| Time | Temp. | Humidity | Pressure | Rain* | Wind** | Luminosity | Snow |
|---|---|---|---|---|---|---|---|
| 1777739517 | 18.33° C | 17% | 1019.7 hPa | 0 mm | - | 738 W/m² | - |
| 1777738318 | 17.22° C | 17% | 1019.7 hPa | 0 mm | - | 490 W/m² | - |
| 1777737718 | 17.78° C | 20% | 1019.7 hPa | 0 mm | - | 638 W/m² | - |
| 1777737118 | 17.78° C | 20% | 1019.8 hPa | 0 mm | - | 649 W/m² | - |
| 1777736517 | 17.78° C | 22% | 1019.8 hPa | 0 mm | - | 577 W/m² | - |
| 1777735917 | 17.22° C | 23% | 1019.1 hPa | 0 mm | - | 577 W/m² | - |
| 1777735318 | 17.22° C | 25% | 1019.1 hPa | 0 mm | - | 531 W/m² | - |
| 1777734118 | 16.67° C | 26% | 1019.1 hPa | 0 mm | - | 399 W/m² | - |
| 1777733518 | 16.11° C | 28% | 1019.2 hPa | 0 mm | - | 469 W/m² | - |
| 1777732919 | 16.11° C | 27% | 1019.3 hPa | 0 mm | - | 434 W/m² | - |
| 1777732318 | 15.56° C | 27% | 1019.2 hPa | 0 mm | - | 392 W/m² | - |
| 1777731718 | 15° C | 28% | 1019.2 hPa | 0 mm | - | 323 W/m² | - |
| 1777731118 | 15° C | 28% | 1019.2 hPa | 0 mm | - | 316 W/m² | - |
| 1777730518 | 13.89° C | 30% | 1019 hPa | 0 mm | - | 294 W/m² | - |
| 1777729918 | 13.33° C | 31% | 1019.1 hPa | 0 mm | - | 253 W/m² | - |
| 1777729318 | 12.78° C | 31% | 1018.9 hPa | 0 mm | - | 207 W/m² | - |
| 1777728718 | 11.67° C | 32% | 1018.7 hPa | 0 mm | - | 158 W/m² | - |
| 1777728118 | 11.67° C | 32% | 1018.7 hPa | 0 mm | - | 118 W/m² | - |
| 1777727518 | 11.11° C | 31% | 1018.5 hPa | 0 mm | - | 79 W/m² | - |
| 1777726918 | 10.56° C | 30% | 1018.4 hPa | 0 mm | - | 44 W/m² | - |
| 1777726318 | 10.56° C | 31% | 1018.4 hPa | 0 mm | - | 11 W/m² | - |
| 1777725718 | 10.56° C | 31% | 1018.4 hPa | 0 mm | - | 5 W/m² | - |
| 1777725118 | 10.56° C | 31% | 1018.4 hPa | 0 mm | - | 0 W/m² | - |
| 1777723318 | 10.56° C | 29% | 1018.5 hPa | 0 mm | - | 0 W/m² | - |
| 1777722718 | 11.11° C | 29% | 1018.5 hPa | 0 mm | - | 0 W/m² | - |
* Rain latest hour (hover to see other rain measurements)
** Current wind speed in m/s (hover to see current wind gust speed)